sensor_id;sensor_type;location;lat;lon;timestamp;P1;durP1;ratioP1;P2;durP2;ratioP2
2652;SDS011;1336;48.692;9.144;2023-03-21T06:00:30;3.60;;;3.27;;
2652;SDS011;1336;48.692;9.144;2023-03-21T06:01:22;4.07;;;3.28;;
2652;SDS011;1336;48.692;9.144;2023-03-21T06:02:13;4.03;;;3.63;;
2652;SDS011;1336;48.692;9.144;2023-03-21T06:03:05;3.60;;;3.30;;
2652;SDS011;1336;48.692;9.144;2023-03-21T06:03:55;5.90;;;3.30;;
2652;SDS011;1336;48.692;9.144;2023-03-21T06:04:47;4.22;;;3.80;;
2652;SDS011;1336;48.692;9.144;2023-03-21T06:05:38;4.13;;;3.73;;
2652;SDS011;1336;48.692;9.144;2023-03-21T06:06:30;3.72;;;3.30;;
2652;SDS011;1336;48.692;9.144;2023-03-21T06:07:20;3.90;;;3.43;;
2652;SDS011;1336;48.692;9.144;2023-03-21T06:08:12;4.10;;;3.80;;
2652;SDS011;1336;48.692;9.144;2023-03-21T06:09:03;4.33;;;3.70;;
2652;SDS011;1336;48.692;9.144;2023-03-21T06:09:55;5.50;;;3.30;;
2652;SDS011;1336;48.692;9.144;2023-03-21T06:10:46;4.97;;;3.60;;
2652;SDS011;1336;48.692;9.144;2023-03-21T06:11:38;3.42;;;3.13;;
2652;SDS011;1336;48.692;9.144;2023-03-21T06:12:32;4.65;;;3.40;;
2652;SDS011;1336;48.692;9.144;2023-03-21T06:13:24;3.70;;;3.35;;
2652;SDS011;1336;48.692;9.144;2023-03-21T06:14:15;4.30;;;3.20;;
2652;SDS011;1336;48.692;9.144;2023-03-21T06:15:07;3.78;;;3.45;;
2652;SDS011;1336;48.692;9.144;2023-03-21T06:16:00;3.83;;;3.53;;
2652;SDS011;1336;48.692;9.144;2023-03-21T06:16:52;4.53;;;3.55;;
2652;SDS011;1336;48.692;9.144;2023-03-21T06:17:43;3.40;;;3.10;;
2652;SDS011;1336;48.692;9.144;2023-03-21T06:18:34;3.20;;;2.97;;
2652;SDS011;1336;48.692;9.144;2023-03-21T06:19:25;3.83;;;3.30;;
2652;SDS011;1336;48.692;9.144;2023-03-21T06:20:17;3.80;;;3.50;;
2652;SDS011;1336;48.692;9.144;2023-03-21T06:21:07;4.03;;;3.30;;
2652;SDS011;1336;48.692;9.144;2023-03-21T06:21:59;3.85;;;3.50;;
2652;SDS011;1336;48.692;9.144;2023-03-21T06:22:50;5.03;;;3.10;;
2652;SDS011;1336;48.692;9.144;2023-03-21T06:23:42;4.15;;;3.75;;
2652;SDS011;1336;48.692;9.144;2023-03-21T06:24:33;5.17;;;4.00;;
2652;SDS011;1336;48.692;9.144;2023-03-21T06:25:24;3.33;;;3.10;;
2652;SDS011;1336;48.692;9.144;2023-03-21T06:26:15;3.80;;;3.40;;
2652;SDS011;1336;48.692;9.144;2023-03-21T06:27:08;3.78;;;3.47;;
2652;SDS011;1336;48.692;9.144;2023-03-21T06:27:59;3.77;;;3.47;;
2652;SDS011;1336;48.692;9.144;2023-03-21T06:28:51;3.92;;;3.20;;
2652;SDS011;1336;48.692;9.144;2023-03-21T06:29:42;4.18;;;3.80;;
2652;SDS011;1336;48.692;9.144;2023-03-21T06:30:34;3.88;;;3.55;;
2652;SDS011;1336;48.692;9.144;2023-03-21T06:31:27;6.90;;;3.43;;
2652;SDS011;1336;48.692;9.144;2023-03-21T06:32:18;3.70;;;3.40;;
2652;SDS011;1336;48.692;9.144;2023-03-21T06:33:09;5.25;;;4.13;;
2652;SDS011;1336;48.692;9.144;2023-03-21T06:34:01;3.80;;;3.50;;
2652;SDS011;1336;48.692;9.144;2023-03-21T06:34:52;4.18;;;3.50;;
2652;SDS011;1336;48.692;9.144;2023-03-21T06:35:49;3.60;;;3.30;;
2652;SDS011;1336;48.692;9.144;2023-03-21T06:36:40;3.70;;;3.40;;
2652;SDS011;1336;48.692;9.144;2023-03-21T06:37:33;4.38;;;3.97;;
2652;SDS011;1336;48.692;9.144;2023-03-21T06:38:24;4.57;;;3.80;;
2652;SDS011;1336;48.692;9.144;2023-03-21T06:39:16;4.68;;;4.20;;
2652;SDS011;1336;48.692;9.144;2023-03-21T06:40:07;4.13;;;3.73;;
2652;SDS011;1336;48.692;9.144;2023-03-21T06:41:00;3.92;;;3.63;;
2652;SDS011;1336;48.692;9.144;2023-03-21T06:41:53;4.43;;;4.03;;
2652;SDS011;1336;48.692;9.144;2023-03-21T06:42:45;3.50;;;3.20;;
2652;SDS011;1336;48.692;9.144;2023-03-21T06:43:36;3.90;;;3.53;;
2652;SDS011;1336;48.692;9.144;2023-03-21T06:44:27;3.50;;;3.20;;
2652;SDS011;1336;48.692;9.144;2023-03-21T06:45:18;4.50;;;3.73;;
2652;SDS011;1336;48.692;9.144;2023-03-21T06:46:10;4.03;;;3.72;;
2652;SDS011;1336;48.692;9.144;2023-03-21T06:47:02;5.70;;;4.10;;
2652;SDS011;1336;48.692;9.144;2023-03-21T06:47:54;3.75;;;3.35;;
2652;SDS011;1336;48.692;9.144;2023-03-21T06:48:45;4.47;;;4.07;;
2652;SDS011;1336;48.692;9.144;2023-03-21T06:49:36;3.95;;;3.65;;
2652;SDS011;1336;48.692;9.144;2023-03-21T06:50:27;4.13;;;3.83;;
2652;SDS011;1336;48.692;9.144;2023-03-21T06:51:19;5.00;;;3.60;;
2652;SDS011;1336;48.692;9.144;2023-03-21T06:52:10;4.27;;;3.87;;
2652;SDS011;1336;48.692;9.144;2023-03-21T06:53:01;4.90;;;3.85;;
2652;SDS011;1336;48.692;9.144;2023-03-21T06:53:52;3.55;;;3.20;;
2652;SDS011;1336;48.692;9.144;2023-03-21T06:54:44;3.63;;;3.33;;
2652;SDS011;1336;48.692;9.144;2023-03-21T06:55:35;4.27;;;3.87;;
2652;SDS011;1336;48.692;9.144;2023-03-21T06:56:26;3.70;;;3.22;;
2652;SDS011;1336;48.692;9.144;2023-03-21T06:57:17;3.97;;;3.67;;
2652;SDS011;1336;48.692;9.144;2023-03-21T06:58:10;8.50;;;4.05;;
2652;SDS011;1336;48.692;9.144;2023-03-21T06:59:01;5.10;;;4.10;;
2652;SDS011;1336;48.692;9.144;2023-03-21T06:59:53;4.82;;;4.32;;
2652;SDS011;1336;48.692;9.144;2023-03-21T07:00:44;3.80;;;3.33;;
2652;SDS011;1336;48.692;9.144;2023-03-21T07:01:36;5.07;;;3.80;;
2652;SDS011;1336;48.692;9.144;2023-03-21T07:02:28;4.40;;;4.05;;
2652;SDS011;1336;48.692;9.144;2023-03-21T07:03:20;6.43;;;3.50;;
2652;SDS011;1336;48.692;9.144;2023-03-21T07:04:12;4.65;;;3.70;;
2652;SDS011;1336;48.692;9.144;2023-03-21T07:05:04;5.07;;;4.57;;
2652;SDS011;1336;48.692;9.144;2023-03-21T07:05:56;4.32;;;3.92;;
2652;SDS011;1336;48.692;9.144;2023-03-21T07:06:48;6.10;;;3.65;;
2652;SDS011;1336;48.692;9.144;2023-03-21T07:07:39;4.40;;;3.67;;
2652;SDS011;1336;48.692;9.144;2023-03-21T07:08:31;4.30;;;3.90;;
2652;SDS011;1336;48.692;9.144;2023-03-21T07:09:21;3.90;;;3.60;;
2652;SDS011;1336;48.692;9.144;2023-03-21T07:10:17;4.47;;;3.95;;
2652;SDS011;1336;48.692;9.144;2023-03-21T07:11:08;4.32;;;3.85;;
2652;SDS011;1336;48.692;9.144;2023-03-21T07:12:00;4.95;;;4.55;;
2652;SDS011;1336;48.692;9.144;2023-03-21T07:12:51;4.00;;;3.70;;
2652;SDS011;1336;48.692;9.144;2023-03-21T07:13:42;4.32;;;3.92;;
2652;SDS011;1336;48.692;9.144;2023-03-21T07:14:33;6.10;;;4.00;;
2652;SDS011;1336;48.692;9.144;2023-03-21T07:15:25;3.75;;;3.45;;
2652;SDS011;1336;48.692;9.144;2023-03-21T07:16:16;4.40;;;4.00;;
2652;SDS011;1336;48.692;9.144;2023-03-21T07:17:10;4.35;;;3.95;;
2652;SDS011;1336;48.692;9.144;2023-03-21T07:18:02;4.07;;;3.67;;
2652;SDS011;1336;48.692;9.144;2023-03-21T07:18:54;6.10;;;5.05;;
2652;SDS011;1336;48.692;9.144;2023-03-21T07:19:45;4.33;;;3.70;;
2652;SDS011;1336;48.692;9.144;2023-03-21T07:20:37;4.85;;;4.35;;
2652;SDS011;1336;48.692;9.144;2023-03-21T07:21:27;4.53;;;4.10;;
2652;SDS011;1336;48.692;9.144;2023-03-21T07:22:19;3.75;;;3.40;;
2652;SDS011;1336;48.692;9.144;2023-03-21T07:23:10;5.17;;;4.00;;
2652;SDS011;1336;48.692;9.144;2023-03-21T07:24:02;4.25;;;3.85;;
2652;SDS011;1336;48.692;9.144;2023-03-21T07:24:52;3.80;;;3.50;;
2652;SDS011;1336;48.692;9.144;2023-03-21T07:25:46;5.10;;;3.80;;
2652;SDS011;1336;48.692;9.144;2023-03-21T07:26:37;3.90;;;3.60;;
2652;SDS011;1336;48.692;9.144;2023-03-21T07:27:29;3.13;;;2.88;;
2652;SDS011;1336;48.692;9.144;2023-03-21T07:28:20;5.23;;;4.13;;
2652;SDS011;1336;48.692;9.144;2023-03-21T07:29:13;4.28;;;3.90;;
2652;SDS011;1336;48.692;9.144;2023-03-21T07:30:04;4.40;;;3.60;;
2652;SDS011;1336;48.692;9.144;2023-03-21T07:30:58;4.43;;;3.80;;
2652;SDS011;1336;48.692;9.144;2023-03-21T07:31:50;4.40;;;4.00;;
2652;SDS011;1336;48.692;9.144;2023-03-21T07:32:42;5.20;;;3.70;;
2652;SDS011;1336;48.692;9.144;2023-03-21T07:33:35;4.13;;;3.70;;
2652;SDS011;1336;48.692;9.144;2023-03-21T07:34:27;3.50;;;3.30;;
2652;SDS011;1336;48.692;9.144;2023-03-21T07:35:22;4.20;;;3.80;;
2652;SDS011;1336;48.692;9.144;2023-03-21T07:36:14;3.72;;;3.42;;
2652;SDS011;1336;48.692;9.144;2023-03-21T07:37:05;4.55;;;3.60;;
2652;SDS011;1336;48.692;9.144;2023-03-21T07:37:56;3.95;;;3.40;;
2652;SDS011;1336;48.692;9.144;2023-03-21T07:38:47;3.53;;;3.23;;
2652;SDS011;1336;48.692;9.144;2023-03-21T07:39:39;4.53;;;3.60;;
2652;SDS011;1336;48.692;9.144;2023-03-21T07:40:32;4.45;;;3.80;;
2652;SDS011;1336;48.692;9.144;2023-03-21T07:41:23;3.80;;;3.50;;
2652;SDS011;1336;48.692;9.144;2023-03-21T07:42:14;3.97;;;3.67;;
2652;SDS011;1336;48.692;9.144;2023-03-21T07:43:06;3.70;;;3.40;;
2652;SDS011;1336;48.692;9.144;2023-03-21T07:43:57;3.90;;;3.50;;
2652;SDS011;1336;48.692;9.144;2023-03-21T07:44:48;5.35;;;4.38;;
2652;SDS011;1336;48.692;9.144;2023-03-21T07:45:40;3.75;;;3.35;;
2652;SDS011;1336;48.692;9.144;2023-03-21T07:46:32;4.75;;;3.50;;
2652;SDS011;1336;48.692;9.144;2023-03-21T07:47:22;4.17;;;3.80;;
2652;SDS011;1336;48.692;9.144;2023-03-21T07:48:14;3.50;;;3.20;;
2652;SDS011;1336;48.692;9.144;2023-03-21T07:49:09;3.63;;;3.30;;
2652;SDS011;1336;48.692;9.144;2023-03-21T07:50:00;4.85;;;3.50;;
2652;SDS011;1336;48.692;9.144;2023-03-21T07:50:53;4.10;;;3.80;;
2652;SDS011;1336;48.692;9.144;2023-03-21T07:51:44;3.77;;;3.47;;
2652;SDS011;1336;48.692;9.144;2023-03-21T07:52:36;3.90;;;3.60;;
2652;SDS011;1336;48.692;9.144;2023-03-21T07:53:27;3.60;;;3.30;;
2652;SDS011;1336;48.692;9.144;2023-03-21T07:54:18;3.78;;;3.42;;
2652;SDS011;1336;48.692;9.144;2023-03-21T07:55:11;3.75;;;3.45;;
2652;SDS011;1336;48.692;9.144;2023-03-21T07:56:03;4.03;;;3.45;;
2652;SDS011;1336;48.692;9.144;2023-03-21T07:56:54;3.10;;;2.80;;
2652;SDS011;1336;48.692;9.144;2023-03-21T07:57:48;3.83;;;3.50;;
2652;SDS011;1336;48.692;9.144;2023-03-21T07:58:40;3.72;;;3.42;;
2652;SDS011;1336;48.692;9.144;2023-03-21T07:59:32;3.50;;;3.20;;
2652;SDS011;1336;48.692;9.144;2023-03-21T08:00:23;4.63;;;3.17;;
2652;SDS011;1336;48.692;9.144;2023-03-21T08:01:15;3.35;;;3.08;;
2652;SDS011;1336;48.692;9.144;2023-03-21T08:02:05;5.57;;;4.23;;
2652;SDS011;1336;48.692;9.144;2023-03-21T08:02:57;6.40;;;3.50;;
2652;SDS011;1336;48.692;9.144;2023-03-21T08:03:48;4.22;;;3.80;;
2652;SDS011;1336;48.692;9.144;2023-03-21T08:04:43;3.38;;;3.05;;
2652;SDS011;1336;48.692;9.144;2023-03-21T08:05:35;3.80;;;3.40;;
2652;SDS011;1336;48.692;9.144;2023-03-21T08:06:27;3.53;;;3.22;;
2652;SDS011;1336;48.692;9.144;2023-03-21T08:07:21;3.33;;;3.03;;
2652;SDS011;1336;48.692;9.144;2023-03-21T08:08:12;3.90;;;3.15;;
2652;SDS011;1336;48.692;9.144;2023-03-21T08:09:04;3.30;;;3.00;;
2652;SDS011;1336;48.692;9.144;2023-03-21T08:09:55;5.40;;;2.80;;
2652;SDS011;1336;48.692;9.144;2023-03-21T08:10:47;3.92;;;3.53;;
2652;SDS011;1336;48.692;9.144;2023-03-21T08:11:38;3.60;;;3.30;;
2652;SDS011;1336;48.692;9.144;2023-03-21T08:12:30;3.20;;;2.90;;
2652;SDS011;1336;48.692;9.144;2023-03-21T08:13:21;2.80;;;2.50;;
2652;SDS011;1336;48.692;9.144;2023-03-21T08:14:13;4.57;;;3.30;;
2652;SDS011;1336;48.692;9.144;2023-03-21T08:15:04;3.43;;;3.13;;
2652;SDS011;1336;48.692;9.144;2023-03-21T08:15:57;3.38;;;3.08;;
2652;SDS011;1336;48.692;9.144;2023-03-21T08:16:47;3.13;;;2.87;;
2652;SDS011;1336;48.692;9.144;2023-03-21T08:17:40;3.75;;;3.40;;
2652;SDS011;1336;48.692;9.144;2023-03-21T08:18:30;3.53;;;3.13;;
2652;SDS011;1336;48.692;9.144;2023-03-21T08:19:22;4.57;;;2.88;;
2652;SDS011;1336;48.692;9.144;2023-03-21T08:20:15;3.23;;;2.80;;
2652;SDS011;1336;48.692;9.144;2023-03-21T08:21:10;3.42;;;2.63;;
2652;SDS011;1336;48.692;9.144;2023-03-21T08:22:00;4.00;;;2.70;;
2652;SDS011;1336;48.692;9.144;2023-03-21T08:22:54;3.40;;;3.00;;
2652;SDS011;1336;48.692;9.144;2023-03-21T08:23:45;2.80;;;2.60;;
2652;SDS011;1336;48.692;9.144;2023-03-21T08:24:37;2.75;;;2.47;;
2652;SDS011;1336;48.692;9.144;2023-03-21T08:25:28;3.30;;;2.70;;
2652;SDS011;1336;48.692;9.144;2023-03-21T08:26:20;4.20;;;2.85;;
2652;SDS011;1336;48.692;9.144;2023-03-21T08:27:14;3.40;;;3.08;;
2652;SDS011;1336;48.692;9.144;2023-03-21T08:28:06;2.97;;;2.70;;
2652;SDS011;1336;48.692;9.144;2023-03-21T08:28:56;3.00;;;2.80;;
2652;SDS011;1336;48.692;9.144;2023-03-21T08:29:48;3.00;;;2.70;;
2652;SDS011;1336;48.692;9.144;2023-03-21T08:30:39;3.87;;;3.00;;
2652;SDS011;1336;48.692;9.144;2023-03-21T08:31:30;3.58;;;3.00;;
2652;SDS011;1336;48.692;9.144;2023-03-21T08:32:21;4.07;;;3.67;;
2652;SDS011;1336;48.692;9.144;2023-03-21T08:33:18;6.65;;;2.60;;
2652;SDS011;1336;48.692;9.144;2023-03-21T08:34:09;4.60;;;3.20;;
2652;SDS011;1336;48.692;9.144;2023-03-21T08:35:03;3.40;;;2.50;;
2652;SDS011;1336;48.692;9.144;2023-03-21T08:35:56;2.75;;;2.55;;
2652;SDS011;1336;48.692;9.144;2023-03-21T08:36:49;3.50;;;2.60;;
2652;SDS011;1336;48.692;9.144;2023-03-21T08:37:40;3.07;;;2.47;;
2652;SDS011;1336;48.692;9.144;2023-03-21T08:38:33;3.03;;;2.72;;
2652;SDS011;1336;48.692;9.144;2023-03-21T08:39:23;2.73;;;2.53;;
2652;SDS011;1336;48.692;9.144;2023-03-21T08:40:17;2.50;;;2.30;;
2652;SDS011;1336;48.692;9.144;2023-03-21T08:41:09;3.60;;;2.85;;
2652;SDS011;1336;48.692;9.144;2023-03-21T08:42:01;3.58;;;3.28;;
2652;SDS011;1336;48.692;9.144;2023-03-21T08:42:52;2.90;;;2.67;;
2652;SDS011;1336;48.692;9.144;2023-03-21T08:43:44;4.55;;;2.75;;
2652;SDS011;1336;48.692;9.144;2023-03-21T08:44:35;3.47;;;2.60;;
2652;SDS011;1336;48.692;9.144;2023-03-21T08:45:28;3.25;;;2.65;;
2652;SDS011;1336;48.692;9.144;2023-03-21T08:46:19;2.80;;;2.60;;
2652;SDS011;1336;48.692;9.144;2023-03-21T08:47:10;2.70;;;2.50;;
2652;SDS011;1336;48.692;9.144;2023-03-21T08:48:01;3.37;;;3.00;;
2652;SDS011;1336;48.692;9.144;2023-03-21T08:48:53;3.83;;;2.60;;
2652;SDS011;1336;48.692;9.144;2023-03-21T08:49:44;3.93;;;2.53;;
2652;SDS011;1336;48.692;9.144;2023-03-21T08:50:36;4.28;;;2.60;;
2652;SDS011;1336;48.692;9.144;2023-03-21T08:51:28;3.03;;;2.73;;
2652;SDS011;1336;48.692;9.144;2023-03-21T08:52:20;2.28;;;2.08;;
2652;SDS011;1336;48.692;9.144;2023-03-21T08:53:11;2.23;;;2.03;;
2652;SDS011;1336;48.692;9.144;2023-03-21T08:54:03;3.35;;;1.90;;
2652;SDS011;1336;48.692;9.144;2023-03-21T08:54:54;2.80;;;1.60;;
2652;SDS011;1336;48.692;9.144;2023-03-21T08:55:45;1.90;;;1.45;;
2652;SDS011;1336;48.692;9.144;2023-03-21T08:56:38;2.17;;;1.75;;
2652;SDS011;1336;48.692;9.144;2023-03-21T08:57:29;2.53;;;1.77;;
2652;SDS011;1336;48.692;9.144;2023-03-21T08:58:20;1.80;;;1.70;;
2652;SDS011;1336;48.692;9.144;2023-03-21T08:59:12;2.80;;;1.63;;
2652;SDS011;1336;48.692;9.144;2023-03-21T09:00:04;1.40;;;1.27;;
2652;SDS011;1336;48.692;9.144;2023-03-21T09:01:02;1.80;;;1.38;;
2652;SDS011;1336;48.692;9.144;2023-03-21T09:01:52;2.17;;;1.48;;
2652;SDS011;1336;48.692;9.144;2023-03-21T09:02:45;2.55;;;1.60;;
2652;SDS011;1336;48.692;9.144;2023-03-21T09:03:37;2.53;;;1.75;;
2652;SDS011;1336;48.692;9.144;2023-03-21T09:04:29;3.38;;;1.80;;
2652;SDS011;1336;48.692;9.144;2023-03-21T09:05:20;2.42;;;1.70;;
2652;SDS011;1336;48.692;9.144;2023-03-21T09:06:14;3.17;;;2.08;;
2652;SDS011;1336;48.692;9.144;2023-03-21T09:07:07;1.90;;;1.80;;
2652;SDS011;1336;48.692;9.144;2023-03-21T09:07:59;3.08;;;2.05;;
2652;SDS011;1336;48.692;9.144;2023-03-21T09:08:52;3.63;;;2.10;;
2652;SDS011;1336;48.692;9.144;2023-03-21T09:09:43;2.40;;;2.20;;
2652;SDS011;1336;48.692;9.144;2023-03-21T09:10:34;3.15;;;1.83;;
2652;SDS011;1336;48.692;9.144;2023-03-21T09:11:25;5.20;;;2.07;;
2652;SDS011;1336;48.692;9.144;2023-03-21T09:12:17;2.95;;;1.95;;
2652;SDS011;1336;48.692;9.144;2023-03-21T09:13:08;2.67;;;2.07;;
2652;SDS011;1336;48.692;9.144;2023-03-21T09:13:59;6.05;;;2.50;;
2652;SDS011;1336;48.692;9.144;2023-03-21T09:14:51;3.30;;;2.53;;
2652;SDS011;1336;48.692;9.144;2023-03-21T09:15:42;2.83;;;2.50;;
2652;SDS011;1336;48.692;9.144;2023-03-21T09:16:34;2.80;;;2.45;;
2652;SDS011;1336;48.692;9.144;2023-03-21T09:17:26;2.55;;;2.35;;
2652;SDS011;1336;48.692;9.144;2023-03-21T09:18:17;3.30;;;2.17;;
2652;SDS011;1336;48.692;9.144;2023-03-21T09:19:12;5.72;;;1.95;;
2652;SDS011;1336;48.692;9.144;2023-03-21T09:20:03;4.07;;;1.83;;
2652;SDS011;1336;48.692;9.144;2023-03-21T09:21:00;3.33;;;2.40;;
2652;SDS011;1336;48.692;9.144;2023-03-21T09:21:51;2.27;;;1.80;;
2652;SDS011;1336;48.692;9.144;2023-03-21T09:22:46;4.05;;;2.03;;
2652;SDS011;1336;48.692;9.144;2023-03-21T09:23:38;1.98;;;1.77;;
2652;SDS011;1336;48.692;9.144;2023-03-21T09:24:30;3.28;;;1.75;;
2652;SDS011;1336;48.692;9.144;2023-03-21T09:25:21;2.13;;;1.87;;
2652;SDS011;1336;48.692;9.144;2023-03-21T09:26:13;4.35;;;2.05;;
2652;SDS011;1336;48.692;9.144;2023-03-21T09:27:05;2.30;;;1.90;;
2652;SDS011;1336;48.692;9.144;2023-03-21T09:27:56;1.83;;;1.67;;
2652;SDS011;1336;48.692;9.144;2023-03-21T09:28:48;2.20;;;2.00;;
2652;SDS011;1336;48.692;9.144;2023-03-21T09:29:40;2.00;;;1.90;;
2652;SDS011;1336;48.692;9.144;2023-03-21T09:30:34;3.67;;;1.90;;
2652;SDS011;1336;48.692;9.144;2023-03-21T09:31:26;2.40;;;2.00;;
2652;SDS011;1336;48.692;9.144;2023-03-21T09:32:18;2.85;;;1.85;;
2652;SDS011;1336;48.692;9.144;2023-03-21T09:33:09;2.30;;;1.92;;
2652;SDS011;1336;48.692;9.144;2023-03-21T09:34:08;3.92;;;2.00;;
2652;SDS011;1336;48.692;9.144;2023-03-21T09:34:58;2.20;;;1.83;;
2652;SDS011;1336;48.692;9.144;2023-03-21T09:35:50;2.10;;;1.90;;
2652;SDS011;1336;48.692;9.144;2023-03-21T09:36:41;2.77;;;2.20;;
2652;SDS011;1336;48.692;9.144;2023-03-21T09:37:37;2.20;;;2.00;;
2652;SDS011;1336;48.692;9.144;2023-03-21T09:38:32;2.13;;;1.70;;
2652;SDS011;1336;48.692;9.144;2023-03-21T09:39:26;2.75;;;2.08;;
2652;SDS011;1336;48.692;9.144;2023-03-21T09:40:18;2.60;;;1.83;;
2652;SDS011;1336;48.692;9.144;2023-03-21T09:41:24;1.80;;;1.70;;
2652;SDS011;1336;48.692;9.144;2023-03-21T09:42:26;2.20;;;2.00;;
2652;SDS011;1336;48.692;9.144;2023-03-21T09:43:26;1.63;;;1.45;;
2652;SDS011;1336;48.692;9.144;2023-03-21T09:44:30;2.40;;;1.73;;
2652;SDS011;1336;48.692;9.144;2023-03-21T09:45:35;2.70;;;1.80;;
2652;SDS011;1336;48.692;9.144;2023-03-21T09:46:33;2.10;;;1.90;;
2652;SDS011;1336;48.692;9.144;2023-03-21T09:47:31;1.85;;;1.67;;
2652;SDS011;1336;48.692;9.144;2023-03-21T09:48:39;2.00;;;1.73;;
2652;SDS011;1336;48.692;9.144;2023-03-21T09:49:38;2.65;;;2.00;;
2652;SDS011;1336;48.692;9.144;2023-03-21T09:50:34;2.03;;;1.88;;
2652;SDS011;1336;48.692;9.144;2023-03-21T09:51:27;2.50;;;1.80;;
2652;SDS011;1336;48.692;9.144;2023-03-21T09:52:23;2.00;;;1.80;;
2652;SDS011;1336;48.692;9.144;2023-03-21T09:53:19;4.30;;;1.65;;
2652;SDS011;1336;48.692;9.144;2023-03-21T09:54:18;2.88;;;1.85;;
2652;SDS011;1336;48.692;9.144;2023-03-21T09:55:14;2.03;;;1.63;;
2652;SDS011;1336;48.692;9.144;2023-03-21T09:56:09;1.90;;;1.60;;
2652;SDS011;1336;48.692;9.144;2023-03-21T09:57:03;1.48;;;1.38;;
2652;SDS011;1336;48.692;9.144;2023-03-21T09:58:05;2.58;;;1.73;;
2652;SDS011;1336;48.692;9.144;2023-03-21T09:59:04;1.60;;;1.50;;
2652;SDS011;1336;48.692;9.144;2023-03-21T09:59:59;1.70;;;1.60;;
2652;SDS011;1336;48.692;9.144;2023-03-21T10:01:02;3.10;;;1.77;;
2652;SDS011;1336;48.692;9.144;2023-03-21T10:02:00;2.13;;;2.03;;
2652;SDS011;1336;48.692;9.144;2023-03-21T10:02:53;2.95;;;2.20;;
2652;SDS011;1336;48.692;9.144;2023-03-21T10:03:48;2.28;;;2.03;;
2652;SDS011;1336;48.692;9.144;2023-03-21T10:04:43;1.80;;;1.70;;
2652;SDS011;1336;48.692;9.144;2023-03-21T10:05:35;1.60;;;1.50;;
2652;SDS011;1336;48.692;9.144;2023-03-21T10:06:33;1.70;;;1.60;;
2652;SDS011;1336;48.692;9.144;2023-03-21T10:07:29;2.40;;;1.52;;
2652;SDS011;1336;48.692;9.144;2023-03-21T10:08:31;1.65;;;1.55;;
2652;SDS011;1336;48.692;9.144;2023-03-21T10:09:27;1.73;;;1.63;;
2652;SDS011;1336;48.692;9.144;2023-03-21T10:10:22;1.50;;;1.40;;
2652;SDS011;1336;48.692;9.144;2023-03-21T10:11:17;2.92;;;1.85;;
2652;SDS011;1336;48.692;9.144;2023-03-21T10:12:13;2.42;;;2.15;;
2652;SDS011;1336;48.692;9.144;2023-03-21T10:13:10;2.15;;;1.60;;
2652;SDS011;1336;48.692;9.144;2023-03-21T10:14:06;2.00;;;1.40;;
2652;SDS011;1336;48.692;9.144;2023-03-21T10:15:02;2.20;;;1.55;;
2652;SDS011;1336;48.692;9.144;2023-03-21T10:15:55;1.80;;;1.50;;
2652;SDS011;1336;48.692;9.144;2023-03-21T10:16:48;2.72;;;1.40;;
2652;SDS011;1336;48.692;9.144;2023-03-21T10:17:42;1.70;;;1.43;;
2652;SDS011;1336;48.692;9.144;2023-03-21T10:18:37;2.07;;;1.83;;
2652;SDS011;1336;48.692;9.144;2023-03-21T10:19:31;2.20;;;2.00;;
2652;SDS011;1336;48.692;9.144;2023-03-21T10:20:22;2.03;;;1.60;;
2652;SDS011;1336;48.692;9.144;2023-03-21T10:21:17;1.57;;;1.47;;
2652;SDS011;1336;48.692;9.144;2023-03-21T10:22:10;1.50;;;1.40;;
2652;SDS011;1336;48.692;9.144;2023-03-21T10:23:03;1.50;;;1.40;;
2652;SDS011;1336;48.692;9.144;2023-03-21T10:23:56;1.70;;;1.60;;
2652;SDS011;1336;48.692;9.144;2023-03-21T10:24:52;1.90;;;1.67;;
2652;SDS011;1336;48.692;9.144;2023-03-21T10:25:43;2.20;;;1.47;;
2652;SDS011;1336;48.692;9.144;2023-03-21T10:26:38;1.60;;;1.50;;
2652;SDS011;1336;48.692;9.144;2023-03-21T10:27:29;2.40;;;1.37;;
2652;SDS011;1336;48.692;9.144;2023-03-21T10:28:22;1.47;;;1.37;;
2652;SDS011;1336;48.692;9.144;2023-03-21T10:29:16;1.83;;;1.73;;
2652;SDS011;1336;48.692;9.144;2023-03-21T10:30:24;1.77;;;1.47;;
2652;SDS011;1336;48.692;9.144;2023-03-21T10:31:19;1.83;;;1.50;;
2652;SDS011;1336;48.692;9.144;2023-03-21T10:32:15;1.87;;;1.77;;
2652;SDS011;1336;48.692;9.144;2023-03-21T10:33:07;2.13;;;1.50;;
2652;SDS011;1336;48.692;9.144;2023-03-21T10:34:04;3.30;;;1.73;;
2652;SDS011;1336;48.692;9.144;2023-03-21T10:35:01;2.13;;;1.90;;
2652;SDS011;1336;48.692;9.144;2023-03-21T10:35:54;3.07;;;1.70;;
2652;SDS011;1336;48.692;9.144;2023-03-21T10:36:47;1.97;;;1.73;;
2652;SDS011;1336;48.692;9.144;2023-03-21T10:37:39;2.00;;;1.60;;
2652;SDS011;1336;48.692;9.144;2023-03-21T10:38:30;2.03;;;1.23;;
2652;SDS011;1336;48.692;9.144;2023-03-21T10:39:24;2.63;;;1.43;;
2652;SDS011;1336;48.692;9.144;2023-03-21T10:40:18;1.67;;;1.40;;
2652;SDS011;1336;48.692;9.144;2023-03-21T10:41:10;1.97;;;1.50;;
2652;SDS011;1336;48.692;9.144;2023-03-21T10:42:01;1.80;;;1.50;;
2652;SDS011;1336;48.692;9.144;2023-03-21T10:42:53;1.40;;;1.30;;
2652;SDS011;1336;48.692;9.144;2023-03-21T10:43:44;1.77;;;1.67;;
2652;SDS011;1336;48.692;9.144;2023-03-21T10:44:40;1.87;;;1.37;;
2652;SDS011;1336;48.692;9.144;2023-03-21T10:45:36;1.53;;;1.43;;
2652;SDS011;1336;48.692;9.144;2023-03-21T10:46:28;1.40;;;1.30;;
2652;SDS011;1336;48.692;9.144;2023-03-21T10:47:19;1.50;;;1.30;;
2652;SDS011;1336;48.692;9.144;2023-03-21T10:48:12;2.23;;;1.20;;
2652;SDS011;1336;48.692;9.144;2023-03-21T10:49:03;1.70;;;1.43;;
2652;SDS011;1336;48.692;9.144;2023-03-21T10:50:00;1.60;;;1.23;;
2652;SDS011;1336;48.692;9.144;2023-03-21T10:50:52;1.40;;;1.20;;
2652;SDS011;1336;48.692;9.144;2023-03-21T10:51:45;2.13;;;1.00;;
2652;SDS011;1336;48.692;9.144;2023-03-21T10:52:37;1.27;;;1.10;;
2652;SDS011;1336;48.692;9.144;2023-03-21T10:53:34;1.67;;;1.30;;
2652;SDS011;1336;48.692;9.144;2023-03-21T10:54:30;1.63;;;1.53;;
2652;SDS011;1336;48.692;9.144;2023-03-21T10:55:24;2.30;;;1.20;;
2652;SDS011;1336;48.692;9.144;2023-03-21T10:56:17;1.30;;;1.20;;
2652;SDS011;1336;48.692;9.144;2023-03-21T10:57:15;1.30;;;1.20;;
2652;SDS011;1336;48.692;9.144;2023-03-21T10:58:13;1.43;;;1.33;;
2652;SDS011;1336;48.692;9.144;2023-03-21T10:59:08;1.40;;;1.30;;
2652;SDS011;1336;48.692;9.144;2023-03-21T11:00:07;2.30;;;1.63;;
2652;SDS011;1336;48.692;9.144;2023-03-21T11:01:08;1.60;;;1.40;;
2652;SDS011;1336;48.692;9.144;2023-03-21T11:02:03;1.60;;;1.50;;
2652;SDS011;1336;48.692;9.144;2023-03-21T11:02:56;1.87;;;1.70;;
2652;SDS011;1336;48.692;9.144;2023-03-21T11:03:48;1.70;;;1.60;;
2652;SDS011;1336;48.692;9.144;2023-03-21T11:04:47;1.40;;;1.23;;
2652;SDS011;1336;48.692;9.144;2023-03-21T11:05:39;1.40;;;1.30;;
2652;SDS011;1336;48.692;9.144;2023-03-21T11:06:31;1.70;;;1.60;;
2652;SDS011;1336;48.692;9.144;2023-03-21T11:07:27;1.80;;;1.50;;
2652;SDS011;1336;48.692;9.144;2023-03-21T11:08:20;2.00;;;1.60;;
2652;SDS011;1336;48.692;9.144;2023-03-21T11:09:13;2.33;;;1.60;;
2652;SDS011;1336;48.692;9.144;2023-03-21T11:10:12;1.50;;;1.40;;
2652;SDS011;1336;48.692;9.144;2023-03-21T11:11:07;1.75;;;1.65;;
2652;SDS011;1336;48.692;9.144;2023-03-21T11:12:01;1.43;;;1.33;;
2652;SDS011;1336;48.692;9.144;2023-03-21T11:12:55;1.90;;;1.80;;
2652;SDS011;1336;48.692;9.144;2023-03-21T11:13:54;1.70;;;1.60;;
2652;SDS011;1336;48.692;9.144;2023-03-21T11:14:48;1.77;;;1.63;;
2652;SDS011;1336;48.692;9.144;2023-03-21T11:15:51;1.75;;;1.38;;
2652;SDS011;1336;48.692;9.144;2023-03-21T11:16:44;1.60;;;1.40;;
2652;SDS011;1336;48.692;9.144;2023-03-21T11:17:34;1.53;;;1.43;;
2652;SDS011;1336;48.692;9.144;2023-03-21T11:18:28;1.75;;;1.60;;
2652;SDS011;1336;48.692;9.144;2023-03-21T11:19:25;1.40;;;1.30;;
2652;SDS011;1336;48.692;9.144;2023-03-21T11:20:20;1.50;;;1.40;;
2652;SDS011;1336;48.692;9.144;2023-03-21T11:21:12;2.15;;;1.50;;
2652;SDS011;1336;48.692;9.144;2023-03-21T11:22:06;1.30;;;1.20;;
2652;SDS011;1336;48.692;9.144;2023-03-21T11:22:58;1.50;;;1.30;;
2652;SDS011;1336;48.692;9.144;2023-03-21T11:23:53;1.60;;;1.50;;
2652;SDS011;1336;48.692;9.144;2023-03-21T11:24:47;1.83;;;1.70;;
2652;SDS011;1336;48.692;9.144;2023-03-21T11:25:40;1.40;;;1.30;;
2652;SDS011;1336;48.692;9.144;2023-03-21T11:26:35;1.90;;;1.70;;
2652;SDS011;1336;48.692;9.144;2023-03-21T11:27:27;1.77;;;1.67;;
2652;SDS011;1336;48.692;9.144;2023-03-21T11:28:20;3.95;;;1.80;;
2652;SDS011;1336;48.692;9.144;2023-03-21T11:29:19;2.78;;;1.40;;